UAL2190 KLAX-KIAH
Flight info
| Callsign | UAL2190 |
|---|---|
| Flight time | 2h 27m |
| Altitude | 300 |
| Route | DOTSS2 CNERY BLH SPTFR Q4 FUSCO DIESL TTORO3 |
| Aircraft | A321/M-VGDW/C |
Departure
| Time | 2026-04-21 03:01 |
|---|---|
| Airport | Los Angeles International Airport (KLAX) |
Arrival
| Time | 2026-04-21 05:28 |
|---|---|
| Airport | George Bush Intercontinental Airport (KIAH) |
| Time | Latitude | Longitude | Altitude | Speed | Heading |
|---|---|---|---|---|---|
| 2026-04-21 02:45 | 33.94196 | -118.40041 | 135 ft | 0 kts | 65° |
| 2026-04-21 02:51 | 33.94193 | -118.40050 | 128 ft | 3 kts | 65° |
| 2026-04-21 02:51 | 33.94185 | -118.40071 | 135 ft | 3 kts | 65° |
| 2026-04-21 02:51 | 33.94174 | -118.40092 | 135 ft | 3 kts | 25° |
| 2026-04-21 02:52 | 33.94152 | -118.40096 | 135 ft | 3 kts | 18° |
| 2026-04-21 02:52 | 33.94134 | -118.40111 | 132 ft | 3 kts | 70° |
| 2026-04-21 02:52 | 33.94131 | -118.40125 | 135 ft | 0 kts | 105° |
| 2026-04-21 02:56 | 33.94023 | -118.40067 | 133 ft | 13 kts | 172° |
| 2026-04-21 02:56 | 33.93966 | -118.40001 | 128 ft | 13 kts | 99° |
| 2026-04-21 02:57 | 33.93973 | -118.39867 | 135 ft | 17 kts | 84° |
| 2026-04-21 02:57 | 33.93948 | -118.39794 | 132 ft | 6 kts | 143° |
| 2026-04-21 02:57 | 33.93913 | -118.39705 | 133 ft | 20 kts | 96° |
| 2026-04-21 02:57 | 33.93928 | -118.39510 | 132 ft | 26 kts | 83° |
| 2026-04-21 02:58 | 33.93952 | -118.39271 | 131 ft | 30 kts | 83° |
| 2026-04-21 02:58 | 33.93979 | -118.39009 | 135 ft | 33 kts | 83° |
| 2026-04-21 02:58 | 33.94005 | -118.38744 | 135 ft | 32 kts | 83° |
| 2026-04-21 02:58 | 33.94031 | -118.38487 | 135 ft | 30 kts | 83° |
| 2026-04-21 02:59 | 33.94057 | -118.38243 | 130 ft | 28 kts | 82° |
| 2026-04-21 02:59 | 33.94074 | -118.38059 | 135 ft | 11 kts | 94° |
| 2026-04-21 02:59 | 33.94037 | -118.38015 | 128 ft | 7 kts | 165° |
| 2026-04-21 02:59 | 33.93988 | -118.38056 | 129 ft | 10 kts | 247° |
| 2026-04-21 03:00 | 33.93975 | -118.38132 | 135 ft | 8 kts | 263° |
| 2026-04-21 03:00 | 33.93962 | -118.38264 | 129 ft | 45 kts | 263° |
| 2026-04-21 03:00 | 33.93886 | -118.39005 | 132 ft | 132 kts | 263° |
| 2026-04-21 03:00 | 33.93748 | -118.40414 | 321 ft | 196 kts | 263° |
| 2026-04-21 03:01 | 33.93589 | -118.42153 | 1212 ft | 227 kts | 263° |
| 2026-04-21 03:01 | 33.93340 | -118.44132 | 2218 ft | 249 kts | 258° |
| 2026-04-21 03:01 | 33.92963 | -118.46214 | 3621 ft | 262 kts | 258° |
| 2026-04-21 03:01 | 33.92517 | -118.48464 | 4703 ft | 295 kts | 247° |
| 2026-04-21 03:02 | 33.91330 | -118.50413 | 6693 ft | 283 kts | 221° |
| 2026-04-21 03:02 | 33.89879 | -118.51939 | 8936 ft | 271 kts | 218° |
| 2026-04-21 03:02 | 33.88445 | -118.53364 | 10948 ft | 263 kts | 217° |
| 2026-04-21 03:02 | 33.86936 | -118.54537 | 11816 ft | 263 kts | 199° |
| 2026-04-21 03:03 | 33.85076 | -118.54944 | 11776 ft | 283 kts | 186° |
| 2026-04-21 03:03 | 33.83061 | -118.55021 | 12023 ft | 293 kts | 182° |
| 2026-04-21 03:03 | 33.81064 | -118.54915 | 12849 ft | 282 kts | 178° |
| 2026-04-21 03:03 | 33.79141 | -118.54648 | 13613 ft | 275 kts | 172° |
| 2026-04-21 03:04 | 33.77282 | -118.54148 | 14190 ft | 273 kts | 170° |
| 2026-04-21 03:04 | 33.75430 | -118.53614 | 14599 ft | 274 kts | 171° |
| 2026-04-21 03:04 | 33.73560 | -118.53110 | 15018 ft | 275 kts | 171° |
| 2026-04-21 03:04 | 33.71720 | -118.52385 | 15350 ft | 285 kts | 151° |
| 2026-04-21 03:05 | 33.70270 | -118.50708 | 15724 ft | 297 kts | 130° |
| 2026-04-21 03:05 | 33.69166 | -118.48614 | 16106 ft | 303 kts | 125° |
| 2026-04-21 03:05 | 33.68164 | -118.46373 | 16488 ft | 306 kts | 122° |
| 2026-04-21 03:05 | 33.67299 | -118.44010 | 16976 ft | 313 kts | 115° |
| 2026-04-21 03:06 | 33.66599 | -118.41524 | 17654 ft | 315 kts | 115° |
| 2026-04-21 03:06 | 33.65870 | -118.39026 | 18473 ft | 319 kts | 114° |
| 2026-04-21 03:06 | 33.65315 | -118.36413 | 19342 ft | 326 kts | 106° |
| 2026-04-21 03:06 | 33.64968 | -118.33702 | 20422 ft | 331 kts | 103° |
| 2026-04-21 03:07 | 33.64704 | -118.30928 | 21479 ft | 338 kts | 101° |
| 2026-04-21 03:07 | 33.64477 | -118.28095 | 22545 ft | 344 kts | 99° |
| 2026-04-21 03:07 | 33.64436 | -118.25180 | 23611 ft | 353 kts | 94° |
| 2026-04-21 03:07 | 33.64472 | -118.22209 | 24477 ft | 359 kts | 94° |
| 2026-04-21 03:08 | 33.64470 | -118.19186 | 25323 ft | 365 kts | 94° |
| 2026-04-21 03:08 | 33.64464 | -118.16152 | 26145 ft | 371 kts | 94° |
| 2026-04-21 03:08 | 33.64465 | -118.13021 | 26991 ft | 377 kts | 94° |
| 2026-04-21 03:08 | 33.64465 | -118.09847 | 27810 ft | 384 kts | 93° |
| 2026-04-21 03:09 | 33.64463 | -118.06620 | 28625 ft | 389 kts | 93° |
| 2026-04-21 03:09 | 33.64462 | -118.03378 | 29648 ft | 389 kts | 93° |
| 2026-04-21 03:09 | 33.64455 | -118.00097 | 30385 ft | 396 kts | 93° |
| 2026-04-21 03:09 | 33.64450 | -117.96777 | 31049 ft | 401 kts | 93° |
| 2026-04-21 03:10 | 33.64445 | -117.93406 | 31707 ft | 406 kts | 94° |
| 2026-04-21 03:10 | 33.64438 | -117.89979 | 32321 ft | 412 kts | 94° |
| 2026-04-21 03:10 | 33.64429 | -117.86558 | 32975 ft | 417 kts | 94° |
| 2026-04-21 03:10 | 33.64379 | -117.83035 | 33603 ft | 420 kts | 98° |
| 2026-04-21 03:11 | 33.64044 | -117.79534 | 34180 ft | 423 kts | 103° |
| 2026-04-21 03:11 | 33.63547 | -117.76047 | 34780 ft | 424 kts | 108° |
| 2026-04-21 03:11 | 33.62740 | -117.72684 | 35321 ft | 424 kts | 112° |
| 2026-04-21 03:11 | 33.61887 | -117.69276 | 35973 ft | 427 kts | 111° |
| 2026-04-21 03:12 | 33.61055 | -117.65837 | 36527 ft | 431 kts | 111° |
| 2026-04-21 03:12 | 33.60194 | -117.62379 | 37143 ft | 433 kts | 111° |
| 2026-04-21 03:12 | 33.59331 | -117.58899 | 37696 ft | 437 kts | 111° |
| 2026-04-21 03:12 | 33.58463 | -117.55380 | 38254 ft | 441 kts | 111° |
| 2026-04-21 03:13 | 33.57586 | -117.51840 | 38786 ft | 444 kts | 111° |
| 2026-04-21 03:13 | 33.56712 | -117.48318 | 39178 ft | 449 kts | 111° |
| 2026-04-21 03:13 | 33.55817 | -117.44706 | 39508 ft | 455 kts | 111° |
| 2026-04-21 03:13 | 33.54897 | -117.41026 | 39702 ft | 466 kts | 111° |
| 2026-04-21 03:14 | 33.53955 | -117.37244 | 39770 ft | 480 kts | 111° |
| 2026-04-21 03:14 | 33.52989 | -117.33353 | 39820 ft | 495 kts | 111° |
| 2026-04-21 03:14 | 33.51984 | -117.29337 | 39844 ft | 511 kts | 111° |
| 2026-04-21 03:14 | 33.51077 | -117.25136 | 39849 ft | 532 kts | 104° |
| 2026-04-21 03:15 | 33.50390 | -117.16215 | 39832 ft | 548 kts | 94° |
| 2026-04-21 03:15 | 33.50261 | -117.07072 | 39806 ft | 548 kts | 94° |
| 2026-04-21 03:16 | 33.50140 | -116.97937 | 39799 ft | 548 kts | 95° |
| 2026-04-21 03:16 | 33.50009 | -116.88821 | 39697 ft | 545 kts | 95° |
| 2026-04-21 03:17 | 33.49942 | -116.84360 | 39518 ft | 538 kts | 96° |
| 2026-04-21 03:17 | 33.49850 | -116.79926 | 39496 ft | 533 kts | 95° |
| 2026-04-21 03:17 | 33.49777 | -116.75416 | 37951 ft | 543 kts | 95° |
| 2026-04-21 03:17 | 33.49721 | -116.70925 | 37526 ft | 533 kts | 95° |
| 2026-04-21 03:18 | 33.49660 | -116.66507 | 37353 ft | 524 kts | 95° |
| 2026-04-21 03:18 | 33.49584 | -116.62222 | 37431 ft | 510 kts | 95° |
| 2026-04-21 03:18 | 33.49493 | -116.57966 | 36928 ft | 507 kts | 95° |
| 2026-04-21 03:18 | 33.49437 | -116.53764 | 37034 ft | 504 kts | 95° |
| 2026-04-21 03:19 | 33.49254 | -116.45347 | 36978 ft | 512 kts | 95° |
| 2026-04-21 03:19 | 33.49139 | -116.36723 | 36946 ft | 521 kts | 95° |
| 2026-04-21 03:20 | 33.49003 | -116.27969 | 36912 ft | 528 kts | 95° |
| 2026-04-21 03:20 | 33.48865 | -116.19113 | 36885 ft | 534 kts | 95° |
| 2026-04-21 03:21 | 33.48718 | -116.10179 | 36882 ft | 538 kts | 95° |
| 2026-04-21 03:21 | 33.49389 | -116.01254 | 36909 ft | 546 kts | 81° |
| 2026-04-21 03:22 | 33.51800 | -115.92574 | 36905 ft | 549 kts | 73° |
| 2026-04-21 03:22 | 33.54320 | -115.83911 | 36895 ft | 550 kts | 73° |
| 2026-04-21 03:23 | 33.56837 | -115.75253 | 36889 ft | 550 kts | 73° |
| 2026-04-21 03:23 | 33.59343 | -115.66622 | 36885 ft | 550 kts | 73° |
| 2026-04-21 03:24 | 33.61395 | -115.57830 | 36910 ft | 544 kts | 85° |
| 2026-04-21 03:24 | 33.61533 | -115.48859 | 36928 ft | 540 kts | 95° |
| 2026-04-21 03:25 | 33.61335 | -115.39835 | 36889 ft | 540 kts | 95° |
| 2026-04-21 03:25 | 33.61108 | -115.30809 | 36875 ft | 541 kts | 95° |
| 2026-04-21 03:26 | 33.60877 | -115.21767 | 36890 ft | 542 kts | 95° |
| 2026-04-21 03:26 | 33.60639 | -115.12771 | 36896 ft | 542 kts | 95° |
| 2026-04-21 03:27 | 33.60395 | -115.03739 | 36901 ft | 541 kts | 95° |
| 2026-04-21 03:27 | 33.60145 | -114.94715 | 36889 ft | 541 kts | 95° |
| 2026-04-21 03:28 | 33.59887 | -114.85729 | 36901 ft | 540 kts | 95° |
| 2026-04-21 03:28 | 33.59489 | -114.76724 | 36906 ft | 539 kts | 98° |
| 2026-04-21 03:29 | 33.58060 | -114.67952 | 36917 ft | 535 kts | 105° |
| 2026-04-21 03:29 | 33.56426 | -114.59229 | 36905 ft | 535 kts | 106° |
| 2026-04-21 03:30 | 33.54787 | -114.50573 | 36903 ft | 535 kts | 106° |
| 2026-04-21 03:30 | 33.53131 | -114.41868 | 36904 ft | 535 kts | 106° |
| 2026-04-21 03:31 | 33.51471 | -114.33168 | 36874 ft | 536 kts | 106° |
| 2026-04-21 03:31 | 33.49798 | -114.24449 | 36911 ft | 536 kts | 106° |
| 2026-04-21 03:32 | 33.48121 | -114.15733 | 36916 ft | 536 kts | 106° |
| 2026-04-21 03:32 | 33.46448 | -114.07073 | 36923 ft | 536 kts | 106° |
| 2026-04-21 03:33 | 33.44754 | -113.98345 | 36913 ft | 538 kts | 106° |
| 2026-04-21 03:33 | 33.43049 | -113.89591 | 36918 ft | 538 kts | 106° |
| 2026-04-21 03:34 | 33.41351 | -113.80907 | 36920 ft | 538 kts | 106° |
| 2026-04-21 03:34 | 33.39645 | -113.72160 | 36913 ft | 540 kts | 103° |
| 2026-04-21 03:35 | 33.38519 | -113.63236 | 36919 ft | 542 kts | 101° |
| 2026-04-21 03:35 | 33.37392 | -113.54326 | 36915 ft | 542 kts | 101° |
| 2026-04-21 03:36 | 33.36248 | -113.45410 | 36911 ft | 542 kts | 101° |
| 2026-04-21 03:36 | 33.35105 | -113.36535 | 36909 ft | 543 kts | 101° |
| 2026-04-21 03:37 | 33.33948 | -113.27604 | 36908 ft | 544 kts | 101° |
| 2026-04-21 03:37 | 33.32782 | -113.18659 | 36901 ft | 543 kts | 101° |
| 2026-04-21 03:38 | 33.31609 | -113.09714 | 36896 ft | 544 kts | 101° |
| 2026-04-21 03:38 | 33.30437 | -113.00806 | 36914 ft | 546 kts | 101° |
| 2026-04-21 03:39 | 33.29247 | -112.91844 | 36920 ft | 545 kts | 101° |
| 2026-04-21 03:39 | 33.28054 | -112.82890 | 36930 ft | 545 kts | 101° |
| 2026-04-21 03:40 | 33.26853 | -112.73941 | 36936 ft | 547 kts | 101° |
| 2026-04-21 03:40 | 33.25845 | -112.66459 | 36932 ft | 548 kts | 101° |
| 2026-04-21 03:41 | 33.24628 | -112.57471 | 36929 ft | 548 kts | 101° |
| 2026-04-21 03:41 | 33.23202 | -112.47013 | 36910 ft | 548 kts | 101° |
| 2026-04-21 03:42 | 33.22167 | -112.39463 | 36910 ft | 550 kts | 101° |
| 2026-04-21 03:42 | 33.20926 | -112.30453 | 36909 ft | 550 kts | 101° |
| 2026-04-21 03:43 | 33.19685 | -112.21494 | 36909 ft | 550 kts | 101° |
| 2026-04-21 03:43 | 33.18428 | -112.12479 | 36880 ft | 550 kts | 101° |
| 2026-04-21 03:44 | 33.17163 | -112.03425 | 36912 ft | 553 kts | 101° |
| 2026-04-21 03:44 | 33.15885 | -111.94356 | 36924 ft | 553 kts | 101° |
| 2026-04-21 03:45 | 33.14607 | -111.85334 | 36929 ft | 553 kts | 101° |
| 2026-04-21 03:45 | 33.13317 | -111.76276 | 36922 ft | 555 kts | 101° |
| 2026-04-21 03:46 | 33.12018 | -111.67185 | 36930 ft | 555 kts | 101° |
| 2026-04-21 03:46 | 33.10710 | -111.58093 | 36925 ft | 555 kts | 101° |
| 2026-04-21 03:47 | 33.09405 | -111.49072 | 36884 ft | 555 kts | 101° |
| 2026-04-21 03:47 | 33.08083 | -111.39979 | 36874 ft | 556 kts | 101° |
| 2026-04-21 03:48 | 33.06753 | -111.30882 | 36885 ft | 556 kts | 101° |
| 2026-04-21 03:48 | 33.05421 | -111.21812 | 36888 ft | 556 kts | 101° |
| 2026-04-21 03:49 | 33.04089 | -111.12795 | 36904 ft | 556 kts | 101° |
| 2026-04-21 03:49 | 33.02735 | -111.03673 | 36905 ft | 559 kts | 101° |
| 2026-04-21 03:50 | 33.01372 | -110.94543 | 36896 ft | 558 kts | 101° |
| 2026-04-21 03:50 | 33.00005 | -110.85430 | 36901 ft | 559 kts | 101° |
| 2026-04-21 03:51 | 32.98637 | -110.76364 | 36909 ft | 559 kts | 101° |
| 2026-04-21 03:51 | 32.97255 | -110.67236 | 36916 ft | 560 kts | 101° |
| 2026-04-21 03:52 | 32.95858 | -110.58069 | 36909 ft | 562 kts | 102° |
| 2026-04-21 03:52 | 32.94456 | -110.48916 | 36917 ft | 562 kts | 102° |
| 2026-04-21 03:53 | 32.93051 | -110.39783 | 36928 ft | 565 kts | 101° |
| 2026-04-21 03:53 | 32.91625 | -110.30560 | 36932 ft | 566 kts | 102° |
| 2026-04-21 03:54 | 32.90193 | -110.21347 | 36919 ft | 565 kts | 102° |
| 2026-04-21 03:54 | 32.88754 | -110.12156 | 36975 ft | 565 kts | 101° |
| 2026-04-21 03:55 | 32.87322 | -110.03012 | 36920 ft | 566 kts | 101° |
| 2026-04-21 03:55 | 32.85869 | -109.93811 | 36920 ft | 566 kts | 102° |
| 2026-04-21 03:56 | 32.84408 | -109.84595 | 36896 ft | 568 kts | 102° |
| 2026-04-21 03:56 | 32.82931 | -109.75332 | 36900 ft | 570 kts | 102° |
| 2026-04-21 03:57 | 32.81446 | -109.66057 | 37025 ft | 570 kts | 102° |
| 2026-04-21 03:57 | 32.79963 | -109.56843 | 37033 ft | 570 kts | 102° |
| 2026-04-21 03:58 | 32.78463 | -109.47572 | 37003 ft | 570 kts | 102° |
| 2026-04-21 03:58 | 32.76954 | -109.38289 | 36976 ft | 573 kts | 102° |
| 2026-04-21 03:59 | 32.75436 | -109.28988 | 36932 ft | 573 kts | 102° |
| 2026-04-21 04:00 | 32.73143 | -109.15040 | 36908 ft | 573 kts | 102° |
| 2026-04-21 04:00 | 32.71614 | -109.05785 | 36912 ft | 576 kts | 102° |
| 2026-04-21 04:01 | 32.70058 | -108.96422 | 36936 ft | 577 kts | 102° |
| 2026-04-21 04:01 | 32.68497 | -108.87068 | 36937 ft | 577 kts | 102° |
| 2026-04-21 04:02 | 32.66928 | -108.77705 | 36944 ft | 577 kts | 102° |
| 2026-04-21 04:02 | 32.65348 | -108.68332 | 36952 ft | 579 kts | 102° |
| 2026-04-21 04:03 | 32.63770 | -108.59015 | 36951 ft | 579 kts | 102° |
| 2026-04-21 04:03 | 32.62175 | -108.49635 | 37031 ft | 579 kts | 102° |
| 2026-04-21 04:04 | 32.60570 | -108.40247 | 37100 ft | 580 kts | 102° |
| 2026-04-21 04:04 | 32.58960 | -108.30869 | 37162 ft | 580 kts | 102° |
| 2026-04-21 04:05 | 32.57349 | -108.21532 | 37206 ft | 583 kts | 102° |
| 2026-04-21 04:05 | 32.55718 | -108.12121 | 37209 ft | 583 kts | 102° |
| 2026-04-21 04:06 | 32.54078 | -108.02702 | 37158 ft | 583 kts | 102° |
| 2026-04-21 04:06 | 32.52433 | -107.93301 | 37094 ft | 583 kts | 102° |
| 2026-04-21 04:07 | 32.50778 | -107.83882 | 37028 ft | 583 kts | 102° |
| 2026-04-21 04:07 | 32.49128 | -107.74548 | 36974 ft | 582 kts | 102° |
| 2026-04-21 04:08 | 32.47462 | -107.65140 | 36968 ft | 583 kts | 102° |
| 2026-04-21 04:08 | 32.45787 | -107.55742 | 36971 ft | 583 kts | 102° |
| 2026-04-21 04:09 | 32.44102 | -107.46326 | 36954 ft | 585 kts | 102° |
| 2026-04-21 04:09 | 32.42413 | -107.36952 | 36972 ft | 586 kts | 102° |
| 2026-04-21 04:10 | 32.40712 | -107.27512 | 36975 ft | 585 kts | 102° |
| 2026-04-21 04:10 | 32.39006 | -107.18111 | 36969 ft | 586 kts | 102° |
| 2026-04-21 04:11 | 32.37287 | -107.08684 | 36973 ft | 585 kts | 102° |
| 2026-04-21 04:11 | 32.35566 | -106.99281 | 36979 ft | 584 kts | 102° |
| 2026-04-21 04:12 | 32.33840 | -106.89890 | 37178 ft | 584 kts | 102° |
| 2026-04-21 04:12 | 32.32982 | -106.85242 | 36966 ft | 584 kts | 102° |
| 2026-04-21 04:12 | 32.32115 | -106.80548 | 36967 ft | 584 kts | 102° |
| 2026-04-21 04:13 | 32.30374 | -106.71162 | 36975 ft | 584 kts | 102° |
| 2026-04-21 04:13 | 32.28633 | -106.61812 | 36982 ft | 581 kts | 102° |
| 2026-04-21 04:14 | 32.26884 | -106.52467 | 36977 ft | 581 kts | 103° |
| 2026-04-21 04:14 | 32.25142 | -106.43193 | 36973 ft | 581 kts | 102° |
| 2026-04-21 04:15 | 32.23380 | -106.33865 | 37007 ft | 580 kts | 102° |
| 2026-04-21 04:15 | 32.21624 | -106.24589 | 36991 ft | 578 kts | 102° |
| 2026-04-21 04:16 | 32.19859 | -106.15320 | 36989 ft | 578 kts | 102° |
| 2026-04-21 04:16 | 32.18097 | -106.06097 | 37007 ft | 578 kts | 102° |
| 2026-04-21 04:17 | 32.16323 | -105.96852 | 37017 ft | 575 kts | 103° |
| 2026-04-21 04:17 | 32.14550 | -105.87656 | 37006 ft | 574 kts | 103° |
| 2026-04-21 04:18 | 32.12763 | -105.78418 | 37016 ft | 579 kts | 103° |
| 2026-04-21 04:18 | 32.10956 | -105.69126 | 37026 ft | 580 kts | 103° |
| 2026-04-21 04:19 | 32.09151 | -105.59864 | 37033 ft | 577 kts | 103° |
| 2026-04-21 04:19 | 32.07356 | -105.50707 | 37019 ft | 576 kts | 103° |
| 2026-04-21 04:20 | 32.05541 | -105.41478 | 37020 ft | 576 kts | 103° |
| 2026-04-21 04:20 | 32.03722 | -105.32273 | 37024 ft | 576 kts | 103° |
| 2026-04-21 04:21 | 32.01913 | -105.23147 | 37028 ft | 573 kts | 104° |
| 2026-04-21 04:21 | 32.00091 | -105.14002 | 37027 ft | 573 kts | 104° |
| 2026-04-21 04:22 | 31.98262 | -105.04850 | 37008 ft | 573 kts | 104° |
| 2026-04-21 04:22 | 31.96419 | -104.95669 | 37039 ft | 578 kts | 104° |
| 2026-04-21 04:23 | 31.94557 | -104.86432 | 37089 ft | 579 kts | 104° |
| 2026-04-21 04:23 | 31.92697 | -104.77261 | 36958 ft | 579 kts | 104° |
| 2026-04-21 04:24 | 31.90828 | -104.68022 | 37037 ft | 579 kts | 104° |
| 2026-04-21 04:24 | 31.88942 | -104.58784 | 37084 ft | 579 kts | 104° |
| 2026-04-21 04:25 | 31.87052 | -104.49557 | 37110 ft | 579 kts | 104° |
| 2026-04-21 04:25 | 31.85169 | -104.40396 | 37111 ft | 579 kts | 105° |
| 2026-04-21 04:26 | 31.83265 | -104.31167 | 37118 ft | 579 kts | 105° |
| 2026-04-21 04:26 | 31.81365 | -104.21997 | 37097 ft | 579 kts | 105° |
| 2026-04-21 04:27 | 31.79755 | -104.14248 | 37124 ft | 582 kts | 105° |
| 2026-04-21 04:27 | 31.77835 | -104.05048 | 37124 ft | 583 kts | 105° |
| 2026-04-21 04:28 | 31.75892 | -103.95773 | 37127 ft | 583 kts | 105° |
| 2026-04-21 04:28 | 31.73948 | -103.86526 | 37124 ft | 583 kts | 105° |
| 2026-04-21 04:29 | 31.72002 | -103.77306 | 37126 ft | 581 kts | 105° |
| 2026-04-21 04:29 | 31.70062 | -103.68151 | 37124 ft | 580 kts | 105° |
| 2026-04-21 04:30 | 31.68107 | -103.58957 | 37123 ft | 580 kts | 105° |
| 2026-04-21 04:30 | 31.66144 | -103.49760 | 37126 ft | 580 kts | 105° |
| 2026-04-21 04:31 | 31.64181 | -103.40601 | 37130 ft | 578 kts | 106° |
| 2026-04-21 04:31 | 31.62209 | -103.31426 | 37143 ft | 581 kts | 106° |
| 2026-04-21 04:32 | 31.60213 | -103.22186 | 37139 ft | 583 kts | 106° |
| 2026-04-21 04:32 | 31.58226 | -103.13014 | 37140 ft | 583 kts | 106° |
| 2026-04-21 04:33 | 31.56229 | -103.03835 | 37142 ft | 580 kts | 106° |
| 2026-04-21 04:33 | 31.54226 | -102.94664 | 37142 ft | 580 kts | 106° |
| 2026-04-21 04:34 | 31.52217 | -102.85494 | 37141 ft | 580 kts | 106° |
| 2026-04-21 04:34 | 31.50213 | -102.76381 | 37141 ft | 579 kts | 107° |
| 2026-04-21 04:35 | 31.48197 | -102.67252 | 37146 ft | 577 kts | 107° |
| 2026-04-21 04:35 | 31.46181 | -102.58149 | 37146 ft | 577 kts | 107° |
| 2026-04-21 04:36 | 31.44149 | -102.49012 | 37133 ft | 580 kts | 107° |
| 2026-04-21 04:36 | 31.42120 | -102.39918 | 37153 ft | 580 kts | 107° |
| 2026-04-21 04:37 | 31.40078 | -102.30800 | 37154 ft | 579 kts | 107° |
| 2026-04-21 04:37 | 31.38028 | -102.21681 | 37149 ft | 579 kts | 107° |
| 2026-04-21 04:38 | 31.35970 | -102.12554 | 37162 ft | 579 kts | 107° |
| 2026-04-21 04:38 | 31.33917 | -102.03489 | 37155 ft | 578 kts | 107° |
| 2026-04-21 04:39 | 31.31855 | -101.94411 | 37161 ft | 576 kts | 107° |
| 2026-04-21 04:39 | 31.29789 | -101.85352 | 37162 ft | 576 kts | 107° |
| 2026-04-21 04:40 | 31.27719 | -101.76298 | 37155 ft | 576 kts | 107° |
| 2026-04-21 04:40 | 31.25653 | -101.67305 | 37138 ft | 577 kts | 107° |
| 2026-04-21 04:41 | 31.23562 | -101.58224 | 37167 ft | 578 kts | 107° |
| 2026-04-21 04:41 | 31.21465 | -101.49155 | 37164 ft | 578 kts | 107° |
| 2026-04-21 04:42 | 31.19359 | -101.40076 | 37170 ft | 578 kts | 107° |
| 2026-04-21 04:42 | 31.17530 | -101.30919 | 37161 ft | 581 kts | 98° |
| 2026-04-21 04:43 | 31.16815 | -101.21515 | 37178 ft | 581 kts | 97° |
| 2026-04-21 04:43 | 31.16109 | -101.12179 | 37166 ft | 581 kts | 97° |
| 2026-04-21 04:44 | 31.15376 | -101.02769 | 37163 ft | 581 kts | 96° |
| 2026-04-21 04:44 | 31.14640 | -100.93363 | 37162 ft | 581 kts | 97° |
| 2026-04-21 04:45 | 31.13899 | -100.84005 | 37174 ft | 581 kts | 97° |
| 2026-04-21 04:45 | 31.13150 | -100.74612 | 37184 ft | 581 kts | 97° |
| 2026-04-21 04:46 | 31.12393 | -100.65220 | 37195 ft | 581 kts | 97° |
| 2026-04-21 04:46 | 31.11633 | -100.55887 | 37197 ft | 580 kts | 97° |
| 2026-04-21 04:47 | 31.10863 | -100.46492 | 37202 ft | 580 kts | 97° |
| 2026-04-21 04:47 | 31.10086 | -100.37120 | 37166 ft | 580 kts | 97° |
| 2026-04-21 04:48 | 31.09307 | -100.27786 | 37177 ft | 581 kts | 97° |
| 2026-04-21 04:48 | 31.08516 | -100.18398 | 37180 ft | 579 kts | 97° |
| 2026-04-21 04:49 | 31.07720 | -100.09039 | 37188 ft | 579 kts | 97° |
| 2026-04-21 04:49 | 31.06918 | -99.99691 | 37188 ft | 579 kts | 97° |
| 2026-04-21 04:50 | 31.06115 | -99.90398 | 37197 ft | 579 kts | 97° |
| 2026-04-21 04:50 | 31.05300 | -99.81059 | 37202 ft | 577 kts | 97° |
| 2026-04-21 04:51 | 31.04482 | -99.71758 | 37204 ft | 576 kts | 97° |
| 2026-04-21 04:51 | 31.03659 | -99.62463 | 37214 ft | 576 kts | 97° |
| 2026-04-21 04:52 | 31.02830 | -99.53206 | 37220 ft | 576 kts | 97° |
| 2026-04-21 04:52 | 31.01992 | -99.43911 | 37210 ft | 574 kts | 97° |
| 2026-04-21 04:53 | 31.01152 | -99.34655 | 37247 ft | 574 kts | 97° |
| 2026-04-21 04:53 | 31.00303 | -99.25390 | 37244 ft | 573 kts | 97° |
| 2026-04-21 04:54 | 30.99455 | -99.16202 | 37242 ft | 573 kts | 97° |
| 2026-04-21 04:54 | 30.98595 | -99.06961 | 37244 ft | 572 kts | 97° |
| 2026-04-21 04:55 | 30.97731 | -98.97754 | 37246 ft | 571 kts | 98° |
| 2026-04-21 04:55 | 30.96860 | -98.88551 | 37250 ft | 571 kts | 98° |
| 2026-04-21 04:56 | 30.95995 | -98.79351 | 37244 ft | 571 kts | 97° |
| 2026-04-21 04:56 | 30.95126 | -98.70159 | 37264 ft | 570 kts | 98° |
| 2026-04-21 04:57 | 30.94255 | -98.61019 | 37260 ft | 572 kts | 98° |
| 2026-04-21 04:57 | 30.93373 | -98.51800 | 37273 ft | 572 kts | 98° |
| 2026-04-21 04:58 | 30.92484 | -98.42585 | 37272 ft | 572 kts | 98° |
| 2026-04-21 04:58 | 30.91589 | -98.33390 | 37297 ft | 572 kts | 98° |
| 2026-04-21 04:59 | 30.90690 | -98.24234 | 37284 ft | 572 kts | 98° |
| 2026-04-21 04:59 | 30.89782 | -98.15017 | 37283 ft | 572 kts | 98° |
| 2026-04-21 05:00 | 30.88865 | -98.05806 | 37280 ft | 573 kts | 98° |
| 2026-04-21 05:00 | 30.87477 | -97.91972 | 37282 ft | 573 kts | 99° |
| 2026-04-21 05:01 | 30.86548 | -97.82812 | 37289 ft | 573 kts | 99° |
| 2026-04-21 05:01 | 30.85606 | -97.73587 | 37280 ft | 565 kts | 99° |
| 2026-04-21 05:02 | 30.85146 | -97.69088 | 37188 ft | 552 kts | 99° |
| 2026-04-21 05:02 | 30.84694 | -97.64699 | 37012 ft | 541 kts | 97° |
| 2026-04-21 05:02 | 30.84280 | -97.60408 | 36330 ft | 541 kts | 98° |
| 2026-04-21 05:02 | 30.83909 | -97.56062 | 35417 ft | 538 kts | 97° |
| 2026-04-21 05:03 | 30.83386 | -97.51802 | 35328 ft | 522 kts | 103° |
| 2026-04-21 05:03 | 30.82819 | -97.47684 | 35289 ft | 510 kts | 98° |
| 2026-04-21 05:03 | 30.82481 | -97.43618 | 35080 ft | 500 kts | 99° |
| 2026-04-21 05:03 | 30.82052 | -97.39562 | 34304 ft | 506 kts | 100° |
| 2026-04-21 05:04 | 30.81632 | -97.35512 | 33868 ft | 501 kts | 99° |
| 2026-04-21 05:04 | 30.81217 | -97.31486 | 33255 ft | 500 kts | 99° |
| 2026-04-21 05:04 | 30.80794 | -97.27475 | 32611 ft | 500 kts | 99° |
| 2026-04-21 05:04 | 30.80368 | -97.23448 | 31953 ft | 501 kts | 99° |
| 2026-04-21 05:05 | 30.79941 | -97.19431 | 31307 ft | 501 kts | 99° |
| 2026-04-21 05:05 | 30.79517 | -97.15456 | 30664 ft | 501 kts | 99° |
| 2026-04-21 05:05 | 30.79086 | -97.11434 | 29947 ft | 501 kts | 99° |
| 2026-04-21 05:05 | 30.78645 | -97.07398 | 29097 ft | 503 kts | 99° |
| 2026-04-21 05:06 | 30.78220 | -97.03355 | 28391 ft | 502 kts | 99° |
| 2026-04-21 05:06 | 30.77787 | -96.99348 | 27880 ft | 496 kts | 99° |
| 2026-04-21 05:06 | 30.77353 | -96.95378 | 27335 ft | 492 kts | 99° |
| 2026-04-21 05:06 | 30.76931 | -96.91487 | 26761 ft | 489 kts | 99° |
| 2026-04-21 05:07 | 30.76505 | -96.87575 | 26235 ft | 485 kts | 99° |
| 2026-04-21 05:07 | 30.76082 | -96.83705 | 25740 ft | 481 kts | 99° |
| 2026-04-21 05:07 | 30.75658 | -96.79842 | 25199 ft | 478 kts | 99° |
| 2026-04-21 05:07 | 30.75237 | -96.76016 | 24749 ft | 481 kts | 99° |
| 2026-04-21 05:08 | 30.74811 | -96.72137 | 24529 ft | 480 kts | 99° |
| 2026-04-21 05:08 | 30.74389 | -96.68325 | 24410 ft | 472 kts | 99° |
| 2026-04-21 05:08 | 30.73971 | -96.64549 | 24358 ft | 470 kts | 99° |
| 2026-04-21 05:08 | 30.73550 | -96.60775 | 24328 ft | 471 kts | 97° |
| 2026-04-21 05:09 | 30.73140 | -96.57036 | 24323 ft | 472 kts | 99° |
| 2026-04-21 05:09 | 30.72709 | -96.53246 | 24314 ft | 473 kts | 99° |
| 2026-04-21 05:09 | 30.72287 | -96.49465 | 24314 ft | 472 kts | 99° |
| 2026-04-21 05:09 | 30.71919 | -96.46181 | 24317 ft | 472 kts | 99° |
| 2026-04-21 05:10 | 30.71491 | -96.42400 | 24325 ft | 471 kts | 99° |
| 2026-04-21 05:10 | 30.71064 | -96.38617 | 24325 ft | 471 kts | 99° |
| 2026-04-21 05:10 | 30.70391 | -96.34903 | 24323 ft | 469 kts | 109° |
| 2026-04-21 05:10 | 30.69345 | -96.31320 | 24329 ft | 468 kts | 112° |
| 2026-04-21 05:11 | 30.67989 | -96.27890 | 24326 ft | 465 kts | 122° |
| 2026-04-21 05:11 | 30.66460 | -96.24644 | 24148 ft | 456 kts | 120° |
| 2026-04-21 05:11 | 30.64994 | -96.21385 | 23680 ft | 454 kts | 121° |
| 2026-04-21 05:11 | 30.63504 | -96.18161 | 23201 ft | 449 kts | 121° |
| 2026-04-21 05:12 | 30.62037 | -96.14969 | 22730 ft | 445 kts | 120° |
| 2026-04-21 05:12 | 30.61075 | -96.12872 | 22392 ft | 442 kts | 120° |
| 2026-04-21 05:12 | 30.59632 | -96.09733 | 21932 ft | 438 kts | 120° |
| 2026-04-21 05:12 | 30.57795 | -96.05738 | 21179 ft | 399 kts | 120° |
| 2026-04-21 05:13 | 30.56486 | -96.02899 | 20735 ft | 399 kts | 120° |
| 2026-04-21 05:13 | 30.55618 | -96.01018 | 20451 ft | 398 kts | 120° |
| 2026-04-21 05:13 | 30.54312 | -95.98187 | 20007 ft | 398 kts | 120° |
| 2026-04-21 05:13 | 30.53033 | -95.95412 | 19586 ft | 398 kts | 120° |
| 2026-04-21 05:14 | 30.51723 | -95.92586 | 19241 ft | 396 kts | 120° |
| 2026-04-21 05:14 | 30.50348 | -95.89825 | 18788 ft | 394 kts | 128° |
| 2026-04-21 05:14 | 30.48656 | -95.87337 | 18326 ft | 392 kts | 133° |
| 2026-04-21 05:14 | 30.46924 | -95.85051 | 17794 ft | 368 kts | 136° |
| 2026-04-21 05:15 | 30.45071 | -95.83012 | 17348 ft | 366 kts | 144° |
| 2026-04-21 05:15 | 30.43125 | -95.81149 | 16896 ft | 367 kts | 143° |
| 2026-04-21 05:15 | 30.41229 | -95.79271 | 16378 ft | 344 kts | 143° |
| 2026-04-21 05:15 | 30.39395 | -95.77464 | 16044 ft | 347 kts | 143° |
| 2026-04-21 05:16 | 30.37564 | -95.75619 | 15618 ft | 350 kts | 142° |
| 2026-04-21 05:16 | 30.35691 | -95.73802 | 15194 ft | 352 kts | 143° |
| 2026-04-21 05:16 | 30.33789 | -95.71990 | 14776 ft | 355 kts | 143° |
| 2026-04-21 05:16 | 30.31885 | -95.70151 | 14364 ft | 358 kts | 142° |
| 2026-04-21 05:17 | 30.30000 | -95.68310 | 13950 ft | 360 kts | 142° |
| 2026-04-21 05:17 | 30.28066 | -95.66461 | 13522 ft | 360 kts | 142° |
| 2026-04-21 05:17 | 30.26158 | -95.64624 | 13357 ft | 353 kts | 141° |
| 2026-04-21 05:17 | 30.24302 | -95.62821 | 13305 ft | 343 kts | 142° |
| 2026-04-21 05:18 | 30.22493 | -95.61080 | 13282 ft | 333 kts | 142° |
| 2026-04-21 05:18 | 30.20735 | -95.59397 | 13264 ft | 322 kts | 142° |
| 2026-04-21 05:18 | 30.19055 | -95.57782 | 13259 ft | 314 kts | 142° |
| 2026-04-21 05:18 | 30.17385 | -95.56176 | 13269 ft | 311 kts | 142° |
| 2026-04-21 05:19 | 30.15695 | -95.54554 | 12912 ft | 319 kts | 142° |
| 2026-04-21 05:19 | 30.13990 | -95.52918 | 12699 ft | 317 kts | 142° |
| 2026-04-21 05:19 | 30.12306 | -95.51279 | 12404 ft | 316 kts | 138° |
| 2026-04-21 05:19 | 30.10985 | -95.49202 | 11681 ft | 330 kts | 114° |
| 2026-04-21 05:20 | 30.10302 | -95.46660 | 11040 ft | 340 kts | 103° |
| 2026-04-21 05:20 | 30.09860 | -95.43941 | 10441 ft | 348 kts | 100° |
| 2026-04-21 05:20 | 30.09511 | -95.41148 | 9826 ft | 355 kts | 98° |
| 2026-04-21 05:20 | 30.09245 | -95.38291 | 9164 ft | 361 kts | 94° |
| 2026-04-21 05:21 | 30.09265 | -95.35492 | 8623 ft | 324 kts | 90° |
| 2026-04-21 05:21 | 30.09274 | -95.33070 | 8342 ft | 289 kts | 92° |
| 2026-04-21 05:21 | 30.09254 | -95.30787 | 8183 ft | 284 kts | 92° |
| 2026-04-21 05:21 | 30.09224 | -95.28526 | 7974 ft | 280 kts | 91° |
| 2026-04-21 05:22 | 30.09238 | -95.26311 | 7686 ft | 261 kts | 91° |
| 2026-04-21 05:22 | 30.09270 | -95.24278 | 6964 ft | 245 kts | 91° |
| 2026-04-21 05:22 | 30.09310 | -95.22367 | 6380 ft | 228 kts | 91° |
| 2026-04-21 05:22 | 30.09347 | -95.20609 | 5974 ft | 210 kts | 94° |
| 2026-04-21 05:23 | 30.09218 | -95.18996 | 5451 ft | 201 kts | 104° |
| 2026-04-21 05:23 | 30.08822 | -95.17460 | 4767 ft | 200 kts | 110° |
| 2026-04-21 05:23 | 30.08358 | -95.15941 | 4056 ft | 201 kts | 115° |
| 2026-04-21 05:23 | 30.07574 | -95.14633 | 3554 ft | 199 kts | 141° |
| 2026-04-21 05:24 | 30.06292 | -95.14042 | 3011 ft | 203 kts | 170° |
| 2026-04-21 05:24 | 30.04917 | -95.13933 | 2967 ft | 197 kts | 175° |
| 2026-04-21 05:24 | 30.03536 | -95.13990 | 2857 ft | 203 kts | 183° |
| 2026-04-21 05:24 | 30.02190 | -95.14357 | 3249 ft | 186 kts | 199° |
| 2026-04-21 05:25 | 30.01136 | -95.15316 | 3334 ft | 209 kts | 234° |
| 2026-04-21 05:25 | 30.00678 | -95.17004 | 2824 ft | 237 kts | 263° |
| 2026-04-21 05:25 | 30.00644 | -95.18900 | 2780 ft | 234 kts | 266° |
| 2026-04-21 05:25 | 30.00709 | -95.20665 | 2559 ft | 212 kts | 273° |
| 2026-04-21 05:26 | 30.00787 | -95.22281 | 2472 ft | 192 kts | 270° |
| 2026-04-21 05:26 | 30.00844 | -95.23756 | 2241 ft | 181 kts | 266° |
| 2026-04-21 05:26 | 30.00822 | -95.25203 | 1832 ft | 178 kts | 266° |
| 2026-04-21 05:26 | 30.00790 | -95.26607 | 1481 ft | 172 kts | 265° |
| 2026-04-21 05:27 | 30.00761 | -95.27997 | 1130 ft | 173 kts | 265° |
| 2026-04-21 05:27 | 30.00737 | -95.29402 | 796 ft | 176 kts | 266° |
| 2026-04-21 05:27 | 30.00734 | -95.30789 | 558 ft | 174 kts | 269° |
| 2026-04-21 05:27 | 30.00721 | -95.32185 | 287 ft | 174 kts | 270° |
| 2026-04-21 05:28 | 30.00722 | -95.33575 | 122 ft | 168 kts | 269° |
| 2026-04-21 05:28 | 30.00719 | -95.34607 | 116 ft | 74 kts | 270° |
| 2026-04-21 05:28 | 30.00675 | -95.34929 | 112 ft | 14 kts | 245° |
| 2026-04-21 05:28 | 30.00660 | -95.34963 | 112 ft | 12 kts | 244° |
| 2026-04-21 05:29 | 30.00584 | -95.35125 | 114 ft | 34 kts | 241° |
| 2026-04-21 05:29 | 30.00553 | -95.35399 | 113 ft | 37 kts | 270° |
| 2026-04-21 05:29 | 30.00510 | -95.35622 | 112 ft | 27 kts | 221° |
| 2026-04-21 05:29 | 30.00331 | -95.35656 | 114 ft | 31 kts | 178° |
| 2026-04-21 05:30 | 30.00282 | -95.35653 | 113 ft | 3 kts | 178° |
| 2026-04-21 05:30 | 30.00234 | -95.35638 | 113 ft | 10 kts | 159° |
| 2026-04-21 05:30 | 30.00138 | -95.35558 | 114 ft | 25 kts | 141° |
| 2026-04-21 05:30 | 29.99993 | -95.35496 | 114 ft | 27 kts | 173° |
| 2026-04-21 05:31 | 29.99760 | -95.35485 | 113 ft | 39 kts | 179° |
| 2026-04-21 05:31 | 29.99465 | -95.35483 | 114 ft | 45 kts | 179° |
| 2026-04-21 05:31 | 29.99219 | -95.35485 | 114 ft | 25 kts | 180° |
| 2026-04-21 05:31 | 29.99105 | -95.35461 | 114 ft | 8 kts | 134° |
| 2026-04-21 05:32 | 29.99094 | -95.35423 | 113 ft | 8 kts | 102° |
| 2026-04-21 05:32 | 29.99088 | -95.35265 | 113 ft | 28 kts | 90° |
| 2026-04-21 05:32 | 29.99087 | -95.34985 | 113 ft | 38 kts | 91° |
| 2026-04-21 05:32 | 29.99083 | -95.34731 | 114 ft | 30 kts | 91° |
| 2026-04-21 05:33 | 29.99082 | -95.34503 | 114 ft | 21 kts | 90° |
| 2026-04-21 05:33 | 29.99082 | -95.34374 | 114 ft | 15 kts | 90° |
| 2026-04-21 05:33 | 29.99083 | -95.34259 | 114 ft | 14 kts | 89° |
| 2026-04-21 05:33 | 29.99086 | -95.34145 | 113 ft | 17 kts | 88° |
| 2026-04-21 05:34 | 29.99058 | -95.34041 | 114 ft | 9 kts | 142° |
| 2026-04-21 05:34 | 29.99022 | -95.34033 | 114 ft | 6 kts | 172° |
| 2026-04-21 05:34 | 29.98949 | -95.34023 | 114 ft | 11 kts | 177° |
| 2026-04-21 05:34 | 29.98895 | -95.34029 | 114 ft | 5 kts | 196° |
| 2026-04-21 05:35 | 29.98883 | -95.34037 | 113 ft | 0 kts | 219° |
| 2026-04-21 05:35 | 29.98882 | -95.34040 | 113 ft | 0 kts | 228° |
| 2026-04-21 05:35 | 29.98878 | -95.34049 | 113 ft | 1 kts | 242° |
| 2026-04-21 05:35 | 29.98871 | -95.34064 | 112 ft | 3 kts | 241° |
| 2026-04-21 05:36 | 29.98862 | -95.34084 | 113 ft | 2 kts | 241° |
| 2026-04-21 05:36 | 29.98857 | -95.34093 | 114 ft | 1 kts | 240° |
| 2026-04-21 05:36 | 29.98854 | -95.34098 | 115 ft | 1 kts | 240° |
| 2026-04-21 05:36 | 29.98853 | -95.34101 | 112 ft | 0 kts | 240° |